Carland, Michigan
Current Conditions -  °F | °C
As of 5:54 PM on Thursday 20 Nov 2014 (Local Time) from KRNP Reporting Station
Clear Clear  
Wind Chill: -15°   Ceiling: Unl
Heat Index: -8°   Visibility: 10mi
Dew Point: -13°   Wind: 10mph
Humidity: 67%   Direction: 260°W
Pressure: 30.02"   Gusts: NA
Location:  43.0981°N, 84.3788°W
Report Text: KRNP 202254Z AUTO 26009KT 10SM CLR M08/M13 A3002 RMK AO2 T10791130
Loading
Personal Weather Stations






























Interactive Weather Map New forecast layout! Learn more

10-Day Weather Forecast

Advertisements
Track Severe Weather on mobile